South Dos Palos, California
Current Conditions -  °F | °C
As of 4:53 AM on Friday 31 Oct 2014 (Local Time) from KMCE Reporting Station
Clear Clear  
Wind Chill: 15°   Ceiling: Unl
Heat Index: 15°   Visibility: 10mi
Dew Point: 11°   Wind: 9mph
Humidity: 75%   Direction: 340°NNW
Pressure: 29.89"   Gusts: NA
Location:  36.96°N, 120.65°W
Report Text: KMCE 311153Z AUTO 34008KT 10SM CLR 15/11 A2989 RMK AO2 SLP119 T01500106 10161 20133 50000
Loading
Personal Weather Stations






























Interactive Weather Map
Tropical Storm Tracking
New forecast layout! Learn more

10-Day Weather Forecast

Advertisements
Track Severe Weather on mobile